sensor_id;sensor_type;location;lat;lon;timestamp;P1;durP1;ratioP1;P2;durP2;ratioP2
7607;SDS011;3845;48.120;11.534;2023-08-17T00:01:06;3.70;;;3.40;;
7607;SDS011;3845;48.120;11.534;2023-08-17T00:03:32;3.60;;;3.30;;
7607;SDS011;3845;48.120;11.534;2023-08-17T00:05:57;4.13;;;3.73;;
7607;SDS011;3845;48.120;11.534;2023-08-17T00:08:22;4.23;;;3.87;;
7607;SDS011;3845;48.120;11.534;2023-08-17T00:10:47;3.87;;;3.50;;
7607;SDS011;3845;48.120;11.534;2023-08-17T00:13:13;3.90;;;3.60;;
7607;SDS011;3845;48.120;11.534;2023-08-17T00:15:39;3.87;;;3.57;;
7607;SDS011;3845;48.120;11.534;2023-08-17T00:18:04;4.10;;;3.70;;
7607;SDS011;3845;48.120;11.534;2023-08-17T00:20:29;4.20;;;3.90;;
7607;SDS011;3845;48.120;11.534;2023-08-17T00:22:55;4.17;;;3.47;;
7607;SDS011;3845;48.120;11.534;2023-08-17T00:25:20;4.20;;;3.80;;
7607;SDS011;3845;48.120;11.534;2023-08-17T00:27:45;4.20;;;3.80;;
7607;SDS011;3845;48.120;11.534;2023-08-17T00:30:11;4.00;;;3.60;;
7607;SDS011;3845;48.120;11.534;2023-08-17T00:32:36;3.50;;;3.20;;
7607;SDS011;3845;48.120;11.534;2023-08-17T00:35:01;3.70;;;3.40;;
7607;SDS011;3845;48.120;11.534;2023-08-17T00:37:27;3.50;;;3.20;;
7607;SDS011;3845;48.120;11.534;2023-08-17T00:39:53;3.77;;;3.47;;
7607;SDS011;3845;48.120;11.534;2023-08-17T00:42:18;3.53;;;3.23;;
7607;SDS011;3845;48.120;11.534;2023-08-17T00:44:43;3.43;;;3.23;;
7607;SDS011;3845;48.120;11.534;2023-08-17T00:47:08;3.87;;;3.57;;
7607;SDS011;3845;48.120;11.534;2023-08-17T00:49:34;4.17;;;3.77;;
7607;SDS011;3845;48.120;11.534;2023-08-17T00:51:59;3.60;;;3.30;;
7607;SDS011;3845;48.120;11.534;2023-08-17T00:54:25;3.73;;;3.27;;
7607;SDS011;3845;48.120;11.534;2023-08-17T00:56:52;3.37;;;3.10;;
7607;SDS011;3845;48.120;11.534;2023-08-17T00:59:18;3.57;;;3.27;;
7607;SDS011;3845;48.120;11.534;2023-08-17T01:01:43;4.13;;;3.60;;
7607;SDS011;3845;48.120;11.534;2023-08-17T01:04:09;4.67;;;3.30;;
7607;SDS011;3845;48.120;11.534;2023-08-17T01:06:34;3.27;;;2.97;;
7607;SDS011;3845;48.120;11.534;2023-08-17T01:08:59;3.57;;;3.27;;
7607;SDS011;3845;48.120;11.534;2023-08-17T01:11:29;4.37;;;3.50;;
7607;SDS011;3845;48.120;11.534;2023-08-17T01:16:50;3.43;;;3.13;;
7607;SDS011;3845;48.120;11.534;2023-08-17T01:19:24;3.80;;;3.50;;
7607;SDS011;3845;48.120;11.534;2023-08-17T01:21:51;3.90;;;3.50;;
7607;SDS011;3845;48.120;11.534;2023-08-17T01:24:20;4.43;;;3.43;;
7607;SDS011;3845;48.120;11.534;2023-08-17T01:26:45;3.50;;;3.20;;
7607;SDS011;3845;48.120;11.534;2023-08-17T01:29:11;3.77;;;3.47;;
7607;SDS011;3845;48.120;11.534;2023-08-17T01:31:44;3.63;;;3.33;;
7607;SDS011;3845;48.120;11.534;2023-08-17T01:34:14;3.80;;;3.40;;
7607;SDS011;3845;48.120;11.534;2023-08-17T01:36:45;3.83;;;3.53;;
7607;SDS011;3845;48.120;11.534;2023-08-17T01:39:13;3.50;;;3.20;;
7607;SDS011;3845;48.120;11.534;2023-08-17T01:41:41;3.47;;;3.17;;
7607;SDS011;3845;48.120;11.534;2023-08-17T01:44:06;4.00;;;3.60;;
7607;SDS011;3845;48.120;11.534;2023-08-17T01:46:32;3.77;;;3.13;;
7607;SDS011;3845;48.120;11.534;2023-08-17T01:48:58;3.60;;;3.30;;
7607;SDS011;3845;48.120;11.534;2023-08-17T01:51:23;5.67;;;3.50;;
7607;SDS011;3845;48.120;11.534;2023-08-17T01:53:49;3.60;;;3.30;;
7607;SDS011;3845;48.120;11.534;2023-08-17T01:56:14;3.73;;;3.43;;
7607;SDS011;3845;48.120;11.534;2023-08-17T01:58:40;3.30;;;3.00;;
7607;SDS011;3845;48.120;11.534;2023-08-17T02:01:05;3.90;;;3.27;;
7607;SDS011;3845;48.120;11.534;2023-08-17T02:03:30;3.60;;;3.30;;
7607;SDS011;3845;48.120;11.534;2023-08-17T02:05:56;3.60;;;3.30;;
7607;SDS011;3845;48.120;11.534;2023-08-17T02:08:22;3.70;;;3.40;;
7607;SDS011;3845;48.120;11.534;2023-08-17T02:10:47;4.20;;;3.50;;
7607;SDS011;3845;48.120;11.534;2023-08-17T02:13:12;3.87;;;3.57;;
7607;SDS011;3845;48.120;11.534;2023-08-17T02:15:39;3.70;;;3.40;;
7607;SDS011;3845;48.120;11.534;2023-08-17T02:18:04;3.80;;;3.37;;
7607;SDS011;3845;48.120;11.534;2023-08-17T02:20:30;3.50;;;3.20;;
7607;SDS011;3845;48.120;11.534;2023-08-17T02:22:55;3.80;;;3.50;;
7607;SDS011;3845;48.120;11.534;2023-08-17T02:25:20;3.90;;;3.50;;
7607;SDS011;3845;48.120;11.534;2023-08-17T02:27:46;3.63;;;3.33;;
7607;SDS011;3845;48.120;11.534;2023-08-17T02:30:11;3.87;;;3.57;;
7607;SDS011;3845;48.120;11.534;2023-08-17T02:32:37;3.90;;;3.60;;
7607;SDS011;3845;48.120;11.534;2023-08-17T02:35:02;3.73;;;3.30;;
7607;SDS011;3845;48.120;11.534;2023-08-17T02:37:28;3.50;;;3.20;;
7607;SDS011;3845;48.120;11.534;2023-08-17T02:39:53;4.13;;;3.70;;
7607;SDS011;3845;48.120;11.534;2023-08-17T02:42:18;3.47;;;3.20;;
7607;SDS011;3845;48.120;11.534;2023-08-17T02:44:44;3.67;;;3.37;;
7607;SDS011;3845;48.120;11.534;2023-08-17T02:47:09;3.67;;;3.37;;
7607;SDS011;3845;48.120;11.534;2023-08-17T02:49:35;3.97;;;3.67;;
7607;SDS011;3845;48.120;11.534;2023-08-17T02:52:00;4.93;;;3.43;;
7607;SDS011;3845;48.120;11.534;2023-08-17T02:54:25;4.00;;;3.60;;
7607;SDS011;3845;48.120;11.534;2023-08-17T02:56:51;3.63;;;3.33;;
7607;SDS011;3845;48.120;11.534;2023-08-17T02:59:16;3.80;;;3.50;;
7607;SDS011;3845;48.120;11.534;2023-08-17T03:01:41;3.70;;;3.40;;
7607;SDS011;3845;48.120;11.534;2023-08-17T03:04:06;3.70;;;3.40;;
7607;SDS011;3845;48.120;11.534;2023-08-17T03:06:32;3.83;;;3.50;;
7607;SDS011;3845;48.120;11.534;2023-08-17T03:08:57;3.77;;;3.30;;
7607;SDS011;3845;48.120;11.534;2023-08-17T03:11:22;5.37;;;3.70;;
7607;SDS011;3845;48.120;11.534;2023-08-17T03:13:47;3.60;;;3.30;;
7607;SDS011;3845;48.120;11.534;2023-08-17T03:16:13;3.83;;;3.53;;
7607;SDS011;3845;48.120;11.534;2023-08-17T03:18:39;4.50;;;4.10;;
7607;SDS011;3845;48.120;11.534;2023-08-17T03:21:05;4.10;;;3.80;;
7607;SDS011;3845;48.120;11.534;2023-08-17T03:23:31;3.97;;;3.57;;
7607;SDS011;3845;48.120;11.534;2023-08-17T03:25:57;4.07;;;3.77;;
7607;SDS011;3845;48.120;11.534;2023-08-17T03:28:22;5.53;;;3.80;;
7607;SDS011;3845;48.120;11.534;2023-08-17T03:30:47;4.20;;;3.80;;
7607;SDS011;3845;48.120;11.534;2023-08-17T03:33:13;4.10;;;3.70;;
7607;SDS011;3845;48.120;11.534;2023-08-17T03:35:38;3.90;;;3.60;;
7607;SDS011;3845;48.120;11.534;2023-08-17T03:38:03;3.83;;;3.53;;
7607;SDS011;3845;48.120;11.534;2023-08-17T03:40:28;4.00;;;3.60;;
7607;SDS011;3845;48.120;11.534;2023-08-17T03:42:54;4.20;;;3.80;;
7607;SDS011;3845;48.120;11.534;2023-08-17T03:45:19;4.43;;;3.60;;
7607;SDS011;3845;48.120;11.534;2023-08-17T03:47:44;4.00;;;3.60;;
7607;SDS011;3845;48.120;11.534;2023-08-17T03:50:09;3.70;;;3.30;;
7607;SDS011;3845;48.120;11.534;2023-08-17T03:52:35;4.30;;;4.00;;
7607;SDS011;3845;48.120;11.534;2023-08-17T03:55:02;4.13;;;3.73;;
7607;SDS011;3845;48.120;11.534;2023-08-17T03:57:27;3.90;;;3.60;;
7607;SDS011;3845;48.120;11.534;2023-08-17T03:59:52;5.20;;;4.10;;
7607;SDS011;3845;48.120;11.534;2023-08-17T04:02:18;3.97;;;3.67;;
7607;SDS011;3845;48.120;11.534;2023-08-17T04:04:43;4.30;;;3.90;;
7607;SDS011;3845;48.120;11.534;2023-08-17T04:07:08;3.80;;;3.50;;
7607;SDS011;3845;48.120;11.534;2023-08-17T04:09:34;4.63;;;3.73;;
7607;SDS011;3845;48.120;11.534;2023-08-17T04:11:59;3.70;;;3.27;;
7607;SDS011;3845;48.120;11.534;2023-08-17T04:14:25;5.50;;;3.80;;
7607;SDS011;3845;48.120;11.534;2023-08-17T04:16:50;5.30;;;3.90;;
7607;SDS011;3845;48.120;11.534;2023-08-17T04:19:16;4.07;;;3.63;;
7607;SDS011;3845;48.120;11.534;2023-08-17T04:21:41;4.10;;;3.80;;
7607;SDS011;3845;48.120;11.534;2023-08-17T04:24:06;4.87;;;4.47;;
7607;SDS011;3845;48.120;11.534;2023-08-17T04:26:32;5.47;;;4.93;;
7607;SDS011;3845;48.120;11.534;2023-08-17T04:28:57;5.00;;;4.57;;
7607;SDS011;3845;48.120;11.534;2023-08-17T04:31:22;4.90;;;4.50;;
7607;SDS011;3845;48.120;11.534;2023-08-17T04:33:48;4.40;;;4.00;;
7607;SDS011;3845;48.120;11.534;2023-08-17T04:36:13;4.53;;;4.13;;
7607;SDS011;3845;48.120;11.534;2023-08-17T04:38:38;4.97;;;4.47;;
7607;SDS011;3845;48.120;11.534;2023-08-17T04:41:04;4.77;;;4.37;;
7607;SDS011;3845;48.120;11.534;2023-08-17T04:43:29;5.03;;;4.57;;
7607;SDS011;3845;48.120;11.534;2023-08-17T04:45:54;4.73;;;4.33;;
7607;SDS011;3845;48.120;11.534;2023-08-17T04:48:19;5.93;;;5.33;;
7607;SDS011;3845;48.120;11.534;2023-08-17T04:50:45;7.33;;;5.73;;
7607;SDS011;3845;48.120;11.534;2023-08-17T04:53:10;7.07;;;6.03;;
7607;SDS011;3845;48.120;11.534;2023-08-17T04:55:36;6.23;;;5.63;;
7607;SDS011;3845;48.120;11.534;2023-08-17T04:58:01;5.70;;;5.10;;
7607;SDS011;3845;48.120;11.534;2023-08-17T05:00:26;5.70;;;5.20;;
7607;SDS011;3845;48.120;11.534;2023-08-17T05:02:55;5.07;;;4.60;;
7607;SDS011;3845;48.120;11.534;2023-08-17T05:05:21;4.80;;;4.40;;
7607;SDS011;3845;48.120;11.534;2023-08-17T05:07:46;5.00;;;4.60;;
7607;SDS011;3845;48.120;11.534;2023-08-17T05:10:11;5.60;;;5.10;;
7607;SDS011;3845;48.120;11.534;2023-08-17T05:12:37;5.30;;;4.80;;
7607;SDS011;3845;48.120;11.534;2023-08-17T05:15:02;5.00;;;4.60;;
7607;SDS011;3845;48.120;11.534;2023-08-17T05:17:28;4.70;;;4.30;;
7607;SDS011;3845;48.120;11.534;2023-08-17T05:19:53;4.77;;;4.37;;
7607;SDS011;3845;48.120;11.534;2023-08-17T05:22:18;4.70;;;3.97;;
7607;SDS011;3845;48.120;11.534;2023-08-17T05:24:44;4.50;;;4.10;;
7607;SDS011;3845;48.120;11.534;2023-08-17T05:27:09;4.37;;;3.97;;
7607;SDS011;3845;48.120;11.534;2023-08-17T05:29:34;4.03;;;3.73;;
7607;SDS011;3845;48.120;11.534;2023-08-17T05:32:00;4.50;;;4.10;;
7607;SDS011;3845;48.120;11.534;2023-08-17T05:34:25;4.63;;;4.23;;
7607;SDS011;3845;48.120;11.534;2023-08-17T05:36:50;4.00;;;3.70;;
7607;SDS011;3845;48.120;11.534;2023-08-17T05:39:16;4.60;;;4.20;;
7607;SDS011;3845;48.120;11.534;2023-08-17T05:41:41;5.97;;;5.30;;
7607;SDS011;3845;48.120;11.534;2023-08-17T05:44:07;5.57;;;5.00;;
7607;SDS011;3845;48.120;11.534;2023-08-17T05:46:32;5.03;;;4.60;;
7607;SDS011;3845;48.120;11.534;2023-08-17T05:48:58;5.43;;;4.73;;
7607;SDS011;3845;48.120;11.534;2023-08-17T05:51:24;5.17;;;4.57;;
7607;SDS011;3845;48.120;11.534;2023-08-17T05:53:49;4.50;;;4.10;;
7607;SDS011;3845;48.120;11.534;2023-08-17T05:56:14;4.77;;;4.37;;
7607;SDS011;3845;48.120;11.534;2023-08-17T05:58:40;4.87;;;4.47;;
7607;SDS011;3845;48.120;11.534;2023-08-17T06:01:09;5.33;;;4.67;;
7607;SDS011;3845;48.120;11.534;2023-08-17T06:03:35;5.47;;;4.80;;
7607;SDS011;3845;48.120;11.534;2023-08-17T06:06:02;4.90;;;4.50;;
7607;SDS011;3845;48.120;11.534;2023-08-17T06:08:27;4.33;;;4.03;;
7607;SDS011;3845;48.120;11.534;2023-08-17T06:10:53;4.83;;;4.20;;
7607;SDS011;3845;48.120;11.534;2023-08-17T06:13:18;4.37;;;3.97;;
7607;SDS011;3845;48.120;11.534;2023-08-17T06:15:43;4.03;;;3.73;;
7607;SDS011;3845;48.120;11.534;2023-08-17T06:18:09;5.00;;;4.10;;
7607;SDS011;3845;48.120;11.534;2023-08-17T06:20:34;4.07;;;3.73;;
7607;SDS011;3845;48.120;11.534;2023-08-17T06:22:59;4.50;;;4.10;;
7607;SDS011;3845;48.120;11.534;2023-08-17T06:25:24;3.70;;;3.40;;
7607;SDS011;3845;48.120;11.534;2023-08-17T06:27:51;4.50;;;4.00;;
7607;SDS011;3845;48.120;11.534;2023-08-17T06:30:16;6.30;;;5.70;;
7607;SDS011;3845;48.120;11.534;2023-08-17T06:32:42;6.43;;;5.70;;
7607;SDS011;3845;48.120;11.534;2023-08-17T06:35:07;5.60;;;5.10;;
7607;SDS011;3845;48.120;11.534;2023-08-17T06:37:33;5.82;;;4.70;;
7607;SDS011;3845;48.120;11.534;2023-08-17T06:39:58;5.20;;;4.70;;
7607;SDS011;3845;48.120;11.534;2023-08-17T06:42:23;4.70;;;4.30;;
7607;SDS011;3845;48.120;11.534;2023-08-17T06:44:49;15.70;;;14.02;;
7607;SDS011;3845;48.120;11.534;2023-08-17T06:47:14;16.43;;;14.93;;
7607;SDS011;3845;48.120;11.534;2023-08-17T06:49:39;35.97;;;32.43;;
7607;SDS011;3845;48.120;11.534;2023-08-17T06:52:05;21.77;;;19.77;;
7607;SDS011;3845;48.120;11.534;2023-08-17T06:54:30;15.13;;;13.73;;
7607;SDS011;3845;48.120;11.534;2023-08-17T06:56:57;11.63;;;10.63;;
7607;SDS011;3845;48.120;11.534;2023-08-17T06:59:22;10.17;;;9.27;;
7607;SDS011;3845;48.120;11.534;2023-08-17T07:01:47;8.30;;;7.50;;
7607;SDS011;3845;48.120;11.534;2023-08-17T07:04:13;7.70;;;7.00;;
7607;SDS011;3845;48.120;11.534;2023-08-17T07:06:38;6.27;;;5.77;;
7607;SDS011;3845;48.120;11.534;2023-08-17T07:09:03;5.60;;;5.10;;
7607;SDS011;3845;48.120;11.534;2023-08-17T07:11:30;5.50;;;5.10;;
7607;SDS011;3845;48.120;11.534;2023-08-17T07:13:55;6.40;;;5.70;;
7607;SDS011;3845;48.120;11.534;2023-08-17T07:16:21;6.40;;;5.80;;
7607;SDS011;3845;48.120;11.534;2023-08-17T07:18:46;7.20;;;6.60;;
7607;SDS011;3845;48.120;11.534;2023-08-17T07:21:11;5.90;;;5.40;;
7607;SDS011;3845;48.120;11.534;2023-08-17T07:23:37;5.03;;;4.60;;
7607;SDS011;3845;48.120;11.534;2023-08-17T07:26:02;5.10;;;4.60;;
7607;SDS011;3845;48.120;11.534;2023-08-17T07:28:28;4.67;;;4.27;;
7607;SDS011;3845;48.120;11.534;2023-08-17T07:30:53;4.97;;;4.40;;
7607;SDS011;3845;48.120;11.534;2023-08-17T07:33:18;4.30;;;3.90;;
7607;SDS011;3845;48.120;11.534;2023-08-17T07:35:43;4.13;;;3.80;;
7607;SDS011;3845;48.120;11.534;2023-08-17T07:38:09;3.70;;;3.40;;
7607;SDS011;3845;48.120;11.534;2023-08-17T07:40:34;4.20;;;3.80;;
7607;SDS011;3845;48.120;11.534;2023-08-17T07:42:59;4.60;;;4.20;;
7607;SDS011;3845;48.120;11.534;2023-08-17T07:45:24;4.30;;;3.90;;
7607;SDS011;3845;48.120;11.534;2023-08-17T07:47:50;3.90;;;3.60;;
7607;SDS011;3845;48.120;11.534;2023-08-17T07:50:15;4.63;;;3.70;;
7607;SDS011;3845;48.120;11.534;2023-08-17T07:52:40;4.50;;;4.10;;
7607;SDS011;3845;48.120;11.534;2023-08-17T07:55:06;4.53;;;4.13;;
7607;SDS011;3845;48.120;11.534;2023-08-17T07:57:31;5.37;;;4.43;;
7607;SDS011;3845;48.120;11.534;2023-08-17T07:59:56;5.63;;;4.80;;
7607;SDS011;3845;48.120;11.534;2023-08-17T08:02:22;4.73;;;4.33;;
7607;SDS011;3845;48.120;11.534;2023-08-17T08:04:47;4.70;;;4.30;;
7607;SDS011;3845;48.120;11.534;2023-08-17T08:07:12;5.50;;;4.37;;
7607;SDS011;3845;48.120;11.534;2023-08-17T08:09:38;4.60;;;4.20;;
7607;SDS011;3845;48.120;11.534;2023-08-17T08:12:05;4.60;;;4.20;;
7607;SDS011;3845;48.120;11.534;2023-08-17T08:14:30;4.17;;;3.77;;
7607;SDS011;3845;48.120;11.534;2023-08-17T08:16:56;4.70;;;4.07;;
7607;SDS011;3845;48.120;11.534;2023-08-17T08:19:21;4.70;;;4.30;;
7607;SDS011;3845;48.120;11.534;2023-08-17T08:21:46;4.87;;;4.23;;
7607;SDS011;3845;48.120;11.534;2023-08-17T08:24:11;5.40;;;4.83;;
7607;SDS011;3845;48.120;11.534;2023-08-17T08:26:37;5.30;;;4.80;;
7607;SDS011;3845;48.120;11.534;2023-08-17T08:29:02;7.57;;;5.50;;
7607;SDS011;3845;48.120;11.534;2023-08-17T08:31:27;5.33;;;4.83;;
7607;SDS011;3845;48.120;11.534;2023-08-17T08:33:53;5.27;;;4.80;;
7607;SDS011;3845;48.120;11.534;2023-08-17T08:36:19;6.00;;;4.60;;
7607;SDS011;3845;48.120;11.534;2023-08-17T08:38:44;5.80;;;5.20;;
7607;SDS011;3845;48.120;11.534;2023-08-17T08:41:11;5.00;;;4.60;;
7607;SDS011;3845;48.120;11.534;2023-08-17T08:43:36;5.43;;;4.93;;
7607;SDS011;3845;48.120;11.534;2023-08-17T08:46:03;5.17;;;4.63;;
7607;SDS011;3845;48.120;11.534;2023-08-17T08:48:29;5.57;;;4.60;;
7607;SDS011;3845;48.120;11.534;2023-08-17T08:50:55;6.20;;;4.80;;
7607;SDS011;3845;48.120;11.534;2023-08-17T08:53:24;4.70;;;4.30;;
7607;SDS011;3845;48.120;11.534;2023-08-17T08:55:54;5.23;;;3.93;;
7607;SDS011;3845;48.120;11.534;2023-08-17T08:58:20;4.60;;;4.10;;
7607;SDS011;3845;48.120;11.534;2023-08-17T09:00:46;4.33;;;3.90;;
7607;SDS011;3845;48.120;11.534;2023-08-17T09:03:12;5.17;;;4.03;;
7607;SDS011;3845;48.120;11.534;2023-08-17T09:05:37;4.73;;;4.30;;
7607;SDS011;3845;48.120;11.534;2023-08-17T09:08:03;5.17;;;4.23;;
7607;SDS011;3845;48.120;11.534;2023-08-17T09:10:29;4.23;;;3.83;;
7607;SDS011;3845;48.120;11.534;2023-08-17T09:12:54;4.67;;;3.80;;
7607;SDS011;3845;48.120;11.534;2023-08-17T09:15:19;4.07;;;3.77;;
7607;SDS011;3845;48.120;11.534;2023-08-17T09:17:45;4.50;;;4.10;;
7607;SDS011;3845;48.120;11.534;2023-08-17T09:20:12;4.27;;;3.87;;
7607;SDS011;3845;48.120;11.534;2023-08-17T09:23:11;4.23;;;3.83;;
7607;SDS011;3845;48.120;11.534;2023-08-17T09:25:42;4.07;;;3.70;;
7607;SDS011;3845;48.120;11.534;2023-08-17T09:28:08;3.53;;;3.23;;
7607;SDS011;3845;48.120;11.534;2023-08-17T09:33:20;3.83;;;3.50;;
7607;SDS011;3845;48.120;11.534;2023-08-17T09:35:47;4.07;;;3.67;;
7607;SDS011;3845;48.120;11.534;2023-08-17T09:38:14;3.67;;;3.37;;
7607;SDS011;3845;48.120;11.534;2023-08-17T09:40:39;3.90;;;3.60;;
7607;SDS011;3845;48.120;11.534;2023-08-17T09:43:05;4.70;;;3.90;;
7607;SDS011;3845;48.120;11.534;2023-08-17T09:45:30;4.00;;;3.70;;
7607;SDS011;3845;48.120;11.534;2023-08-17T09:47:58;4.77;;;3.30;;
7607;SDS011;3845;48.120;11.534;2023-08-17T09:50:24;3.30;;;3.00;;
7607;SDS011;3845;48.120;11.534;2023-08-17T09:52:53;4.37;;;3.37;;
7607;SDS011;3845;48.120;11.534;2023-08-17T09:55:20;3.40;;;3.03;;
7607;SDS011;3845;48.120;11.534;2023-08-17T09:57:48;4.17;;;3.80;;
7607;SDS011;3845;48.120;11.534;2023-08-17T10:00:14;4.43;;;3.70;;
7607;SDS011;3845;48.120;11.534;2023-08-17T10:02:39;3.70;;;3.40;;
7607;SDS011;3845;48.120;11.534;2023-08-17T10:05:05;4.73;;;3.90;;
7607;SDS011;3845;48.120;11.534;2023-08-17T10:07:33;3.43;;;3.20;;
7607;SDS011;3845;48.120;11.534;2023-08-17T10:10:04;3.67;;;3.37;;
7607;SDS011;3845;48.120;11.534;2023-08-17T10:12:33;5.07;;;3.20;;
7607;SDS011;3845;48.120;11.534;2023-08-17T10:15:02;5.13;;;3.70;;
7607;SDS011;3845;48.120;11.534;2023-08-17T10:17:31;4.30;;;3.90;;
7607;SDS011;3845;48.120;11.534;2023-08-17T10:20:00;5.10;;;4.40;;
7607;SDS011;3845;48.120;11.534;2023-08-17T10:22:27;4.30;;;3.90;;
7607;SDS011;3845;48.120;11.534;2023-08-17T10:24:57;4.40;;;4.00;;
7607;SDS011;3845;48.120;11.534;2023-08-17T10:27:24;4.40;;;4.00;;
7607;SDS011;3845;48.120;11.534;2023-08-17T10:29:50;3.97;;;3.63;;
7607;SDS011;3845;48.120;11.534;2023-08-17T10:32:16;4.27;;;3.43;;
7607;SDS011;3845;48.120;11.534;2023-08-17T10:34:41;3.60;;;3.30;;
7607;SDS011;3845;48.120;11.534;2023-08-17T10:37:07;4.60;;;4.20;;
7607;SDS011;3845;48.120;11.534;2023-08-17T10:39:32;4.53;;;4.13;;
7607;SDS011;3845;48.120;11.534;2023-08-17T10:41:59;4.40;;;4.10;;
7607;SDS011;3845;48.120;11.534;2023-08-17T10:44:39;4.93;;;4.17;;
7607;SDS011;3845;48.120;11.534;2023-08-17T10:47:29;4.43;;;4.00;;
7607;SDS011;3845;48.120;11.534;2023-08-17T10:52:33;4.63;;;4.23;;
7607;SDS011;3845;48.120;11.534;2023-08-17T10:55:01;4.43;;;3.87;;
7607;SDS011;3845;48.120;11.534;2023-08-17T10:57:32;4.23;;;3.83;;
7607;SDS011;3845;48.120;11.534;2023-08-17T11:02:46;4.90;;;3.53;;
7607;SDS011;3845;48.120;11.534;2023-08-17T11:05:33;5.10;;;4.67;;
7607;SDS011;3845;48.120;11.534;2023-08-17T11:08:03;4.43;;;4.03;;
7607;SDS011;3845;48.120;11.534;2023-08-17T11:10:29;4.50;;;4.10;;
7607;SDS011;3845;48.120;11.534;2023-08-17T11:12:55;4.27;;;3.90;;
7607;SDS011;3845;48.120;11.534;2023-08-17T11:15:34;4.30;;;3.90;;
7607;SDS011;3845;48.120;11.534;2023-08-17T11:18:05;4.20;;;3.40;;
7607;SDS011;3845;48.120;11.534;2023-08-17T11:20:31;3.70;;;3.40;;
7607;SDS011;3845;48.120;11.534;2023-08-17T11:22:57;5.20;;;3.53;;
7607;SDS011;3845;48.120;11.534;2023-08-17T11:25:24;3.60;;;3.30;;
7607;SDS011;3845;48.120;11.534;2023-08-17T11:27:51;3.77;;;3.47;;
7607;SDS011;3845;48.120;11.534;2023-08-17T11:30:16;3.37;;;3.17;;
7607;SDS011;3845;48.120;11.534;2023-08-17T11:32:42;3.43;;;3.20;;
7607;SDS011;3845;48.120;11.534;2023-08-17T11:35:07;3.80;;;3.40;;
7607;SDS011;3845;48.120;11.534;2023-08-17T11:37:33;3.70;;;3.40;;
7607;SDS011;3845;48.120;11.534;2023-08-17T11:39:58;3.87;;;3.50;;
7607;SDS011;3845;48.120;11.534;2023-08-17T11:42:23;4.00;;;3.60;;
7607;SDS011;3845;48.120;11.534;2023-08-17T11:44:48;4.10;;;3.80;;
7607;SDS011;3845;48.120;11.534;2023-08-17T11:47:14;4.60;;;4.20;;
7607;SDS011;3845;48.120;11.534;2023-08-17T11:49:39;3.80;;;3.50;;
7607;SDS011;3845;48.120;11.534;2023-08-17T11:52:04;4.60;;;4.20;;
7607;SDS011;3845;48.120;11.534;2023-08-17T11:54:32;4.77;;;4.00;;
7607;SDS011;3845;48.120;11.534;2023-08-17T11:56:57;4.10;;;3.80;;
7607;SDS011;3845;48.120;11.534;2023-08-17T11:59:23;4.03;;;3.73;;
7607;SDS011;3845;48.120;11.534;2023-08-17T12:01:48;4.30;;;3.90;;
7607;SDS011;3845;48.120;11.534;2023-08-17T12:04:14;4.77;;;4.37;;
7607;SDS011;3845;48.120;11.534;2023-08-17T12:06:43;6.17;;;4.73;;
7607;SDS011;3845;48.120;11.534;2023-08-17T12:09:10;4.57;;;4.13;;
7607;SDS011;3845;48.120;11.534;2023-08-17T12:11:37;6.63;;;4.60;;
7607;SDS011;3845;48.120;11.534;2023-08-17T12:14:08;4.30;;;3.90;;
7607;SDS011;3845;48.120;11.534;2023-08-17T12:16:44;5.60;;;5.10;;
7607;SDS011;3845;48.120;11.534;2023-08-17T12:19:10;4.70;;;4.30;;
7607;SDS011;3845;48.120;11.534;2023-08-17T12:21:35;4.80;;;4.30;;
7607;SDS011;3845;48.120;11.534;2023-08-17T12:24:03;4.43;;;4.10;;
7607;SDS011;3845;48.120;11.534;2023-08-17T12:26:29;4.50;;;4.20;;
7607;SDS011;3845;48.120;11.534;2023-08-17T12:28:54;4.40;;;4.00;;
7607;SDS011;3845;48.120;11.534;2023-08-17T12:31:21;6.37;;;4.33;;
7607;SDS011;3845;48.120;11.534;2023-08-17T12:33:47;5.03;;;4.63;;
7607;SDS011;3845;48.120;11.534;2023-08-17T12:36:13;4.53;;;4.13;;
7607;SDS011;3845;48.120;11.534;2023-08-17T12:38:38;4.97;;;4.47;;
7607;SDS011;3845;48.120;11.534;2023-08-17T12:41:09;4.73;;;4.33;;
7607;SDS011;3845;48.120;11.534;2023-08-17T12:43:35;5.53;;;5.03;;
7607;SDS011;3845;48.120;11.534;2023-08-17T12:46:00;5.50;;;5.00;;
7607;SDS011;3845;48.120;11.534;2023-08-17T12:48:25;5.57;;;5.03;;
7607;SDS011;3845;48.120;11.534;2023-08-17T12:50:50;5.50;;;4.57;;
7607;SDS011;3845;48.120;11.534;2023-08-17T12:53:16;6.57;;;5.13;;
7607;SDS011;3845;48.120;11.534;2023-08-17T12:55:41;5.70;;;5.20;;
7607;SDS011;3845;48.120;11.534;2023-08-17T12:58:09;5.67;;;5.10;;
7607;SDS011;3845;48.120;11.534;2023-08-17T13:00:35;5.30;;;4.80;;
7607;SDS011;3845;48.120;11.534;2023-08-17T13:03:00;5.20;;;4.70;;
7607;SDS011;3845;48.120;11.534;2023-08-17T13:05:26;6.63;;;4.40;;
7607;SDS011;3845;48.120;11.534;2023-08-17T13:07:51;5.20;;;4.53;;
7607;SDS011;3845;48.120;11.534;2023-08-17T13:10:16;5.13;;;4.30;;
7607;SDS011;3845;48.120;11.534;2023-08-17T13:12:42;4.37;;;3.97;;
7607;SDS011;3845;48.120;11.534;2023-08-17T13:15:07;4.30;;;4.00;;
7607;SDS011;3845;48.120;11.534;2023-08-17T13:17:32;4.90;;;4.50;;
7607;SDS011;3845;48.120;11.534;2023-08-17T13:19:58;4.50;;;4.20;;
7607;SDS011;3845;48.120;11.534;2023-08-17T13:22:23;4.50;;;4.10;;
7607;SDS011;3845;48.120;11.534;2023-08-17T13:24:48;4.73;;;4.33;;
7607;SDS011;3845;48.120;11.534;2023-08-17T13:27:13;4.23;;;3.83;;
7607;SDS011;3845;48.120;11.534;2023-08-17T13:29:39;5.13;;;4.00;;
7607;SDS011;3845;48.120;11.534;2023-08-17T13:32:05;7.60;;;4.30;;
7607;SDS011;3845;48.120;11.534;2023-08-17T13:34:30;3.90;;;3.60;;
7607;SDS011;3845;48.120;11.534;2023-08-17T13:36:55;4.20;;;3.87;;
7607;SDS011;3845;48.120;11.534;2023-08-17T13:39:21;4.85;;;4.45;;
7607;SDS011;3845;48.120;11.534;2023-08-17T13:41:46;4.10;;;3.80;;
7607;SDS011;3845;48.120;11.534;2023-08-17T13:44:11;4.30;;;3.90;;
7607;SDS011;3845;48.120;11.534;2023-08-17T13:46:36;3.90;;;3.60;;
7607;SDS011;3845;48.120;11.534;2023-08-17T13:49:02;4.13;;;3.83;;
7607;SDS011;3845;48.120;11.534;2023-08-17T13:51:28;4.77;;;4.30;;
7607;SDS011;3845;48.120;11.534;2023-08-17T13:53:53;4.78;;;4.38;;
7607;SDS011;3845;48.120;11.534;2023-08-17T13:56:18;4.80;;;4.27;;
7607;SDS011;3845;48.120;11.534;2023-08-17T13:58:44;4.77;;;4.37;;
7607;SDS011;3845;48.120;11.534;2023-08-17T14:01:09;5.17;;;4.50;;
7607;SDS011;3845;48.120;11.534;2023-08-17T14:03:36;4.97;;;4.57;;
7607;SDS011;3845;48.120;11.534;2023-08-17T14:06:01;4.53;;;4.03;;
7607;SDS011;3845;48.120;11.534;2023-08-17T14:08:27;4.40;;;4.00;;
7607;SDS011;3845;48.120;11.534;2023-08-17T14:10:52;4.90;;;4.40;;
7607;SDS011;3845;48.120;11.534;2023-08-17T14:13:17;5.07;;;4.17;;
7607;SDS011;3845;48.120;11.534;2023-08-17T14:15:43;4.60;;;4.20;;
7607;SDS011;3845;48.120;11.534;2023-08-17T14:18:08;4.90;;;4.50;;
7607;SDS011;3845;48.120;11.534;2023-08-17T14:20:33;4.87;;;4.47;;
7607;SDS011;3845;48.120;11.534;2023-08-17T14:22:58;4.30;;;4.00;;
7607;SDS011;3845;48.120;11.534;2023-08-17T14:25:24;5.00;;;4.60;;
7607;SDS011;3845;48.120;11.534;2023-08-17T14:27:49;5.67;;;4.70;;
7607;SDS011;3845;48.120;11.534;2023-08-17T14:30:14;5.20;;;4.70;;
7607;SDS011;3845;48.120;11.534;2023-08-17T14:32:40;5.30;;;4.80;;
7607;SDS011;3845;48.120;11.534;2023-08-17T14:35:05;5.07;;;4.68;;
7607;SDS011;3845;48.120;11.534;2023-08-17T14:37:30;6.27;;;5.60;;
7607;SDS011;3845;48.120;11.534;2023-08-17T14:39:56;6.53;;;5.80;;
7607;SDS011;3845;48.120;11.534;2023-08-17T14:42:21;6.10;;;5.50;;
7607;SDS011;3845;48.120;11.534;2023-08-17T14:44:48;6.33;;;5.73;;
7607;SDS011;3845;48.120;11.534;2023-08-17T14:47:13;5.75;;;5.32;;
7607;SDS011;3845;48.120;11.534;2023-08-17T14:49:38;8.70;;;5.97;;
7607;SDS011;3845;48.120;11.534;2023-08-17T14:52:04;5.73;;;5.27;;
7607;SDS011;3845;48.120;11.534;2023-08-17T14:54:29;6.13;;;5.10;;
7607;SDS011;3845;48.120;11.534;2023-08-17T14:56:55;6.70;;;6.00;;
7607;SDS011;3845;48.120;11.534;2023-08-17T14:59:20;6.90;;;6.30;;
7607;SDS011;3845;48.120;11.534;2023-08-17T15:01:45;6.70;;;6.00;;
7607;SDS011;3845;48.120;11.534;2023-08-17T15:04:10;6.30;;;5.70;;